createdAt,value
2023-01-04T00:00:38.569Z,79.35
2023-01-04T00:03:05.228Z,78.94
2023-01-04T00:05:31.826Z,79.00
2023-01-04T00:07:58.270Z,79.68
2023-01-04T00:10:24.858Z,79.48
2023-01-04T00:12:51.347Z,79.58
2023-01-04T00:15:17.811Z,79.33
2023-01-04T00:17:44.266Z,79.79
2023-01-04T00:20:10.707Z,79.13
2023-01-04T00:22:37.161Z,79.65
2023-01-04T00:25:03.578Z,79.41
2023-01-04T00:27:30.037Z,79.27
2023-01-04T00:29:56.446Z,79.46
2023-01-04T00:32:22.864Z,79.60
2023-01-04T00:34:49.337Z,79.94
2023-01-04T00:37:15.787Z,80.16
2023-01-04T00:39:42.252Z,79.51
2023-01-04T00:42:08.701Z,79.39
2023-01-04T00:44:35.162Z,80.08
2023-01-04T00:47:01.626Z,80.13
2023-01-04T00:49:28.041Z,79.60
2023-01-04T00:51:54.557Z,78.97
2023-01-04T00:54:20.981Z,79.35
2023-01-04T00:56:47.426Z,79.72
2023-01-04T00:59:13.862Z,79.57
2023-01-04T01:01:40.426Z,80.00
2023-01-04T01:04:07.038Z,80.03
2023-01-04T01:06:33.529Z,79.87
2023-01-04T01:08:59.951Z,79.26
2023-01-04T01:11:26.376Z,79.88
2023-01-04T01:13:52.803Z,80.38
2023-01-04T01:16:37.970Z,79.86
2023-01-04T01:19:05.634Z,80.42
2023-01-04T01:21:32.062Z,79.67
2023-01-04T01:23:58.462Z,79.77
2023-01-04T01:26:24.858Z,79.53
2023-01-04T01:28:51.274Z,79.46
2023-01-04T01:31:17.768Z,79.84
2023-01-04T01:33:44.231Z,79.70
2023-01-04T01:36:10.629Z,78.56
2023-01-04T01:38:37.040Z,78.94
2023-01-04T01:41:03.455Z,79.48
2023-01-04T01:43:29.867Z,79.31
2023-01-04T01:45:56.386Z,78.81
2023-01-04T01:48:22.888Z,78.85
2023-01-04T01:50:49.311Z,79.12
2023-01-04T01:53:15.749Z,80.19
2023-01-04T01:55:42.151Z,80.29
2023-01-04T01:58:08.594Z,79.75
2023-01-04T02:00:35.011Z,79.40
2023-01-04T02:03:01.543Z,79.21
2023-01-04T02:05:28.049Z,79.40
2023-01-04T02:07:54.493Z,78.83
2023-01-04T02:10:20.951Z,79.10
2023-01-04T02:12:47.375Z,78.72
2023-01-04T02:15:13.880Z,79.07
2023-01-04T02:17:40.318Z,79.39
2023-01-04T02:20:06.788Z,79.39
2023-01-04T02:22:33.229Z,79.85
2023-01-04T02:24:59.664Z,79.81
2023-01-04T02:27:26.258Z,79.73
2023-01-04T02:29:52.679Z,79.77
2023-01-04T02:32:19.120Z,79.13
2023-01-04T02:34:45.571Z,79.90
2023-01-04T02:37:12.006Z,79.52
2023-01-04T02:39:38.418Z,80.49
2023-01-04T02:42:04.856Z,80.54
2023-01-04T02:44:31.276Z,80.56
2023-01-04T02:46:57.721Z,80.21
2023-01-04T02:49:24.225Z,80.23
2023-01-04T02:51:50.639Z,80.17
2023-01-04T02:54:17.055Z,78.45
2023-01-04T02:56:43.719Z,79.28
2023-01-04T02:59:10.121Z,79.48
2023-01-04T03:01:36.628Z,78.98
2023-01-04T03:04:03.130Z,78.85
2023-01-04T03:06:29.623Z,79.99
2023-01-04T03:08:56.028Z,80.27
2023-01-04T03:11:22.443Z,79.67
2023-01-04T03:13:48.892Z,80.67
2023-01-04T03:16:15.368Z,80.75
2023-01-04T03:18:41.854Z,80.04
2023-01-04T03:21:08.278Z,79.88
2023-01-04T03:23:34.725Z,79.35
2023-01-04T03:26:01.180Z,79.58
2023-01-04T03:28:27.656Z,79.48
2023-01-04T03:30:54.104Z,79.43
2023-01-04T03:33:20.579Z,79.15
2023-01-04T03:35:47.001Z,77.31
2023-01-04T03:38:13.433Z,75.72
2023-01-04T03:40:39.884Z,77.39
2023-01-04T03:43:06.321Z,76.48
2023-01-04T03:45:32.756Z,78.57
2023-01-04T03:47:59.158Z,78.50
2023-01-04T03:50:25.564Z,79.09
2023-01-04T03:52:52.021Z,79.74
2023-01-04T03:55:18.427Z,77.37
2023-01-04T03:57:44.835Z,76.28
2023-01-04T04:00:11.279Z,77.05
2023-01-04T04:02:37.726Z,77.89
2023-01-04T04:05:04.182Z,77.65
2023-01-04T04:07:30.588Z,76.31
2023-01-04T04:09:56.994Z,75.24
2023-01-04T04:12:23.414Z,76.24
2023-01-04T04:14:49.862Z,75.45
2023-01-04T04:17:16.282Z,75.62
2023-01-04T04:19:42.719Z,76.89
2023-01-04T04:22:09.202Z,75.74
2023-01-04T04:24:35.626Z,76.54
2023-01-04T04:27:02.162Z,76.20
2023-01-04T04:29:28.598Z,76.42
2023-01-04T04:31:55.044Z,77.13
2023-01-04T04:34:21.598Z,76.16
2023-01-04T04:36:48.012Z,76.98
2023-01-04T04:39:14.455Z,78.07
2023-01-04T04:41:40.920Z,79.08
2023-01-04T04:44:07.378Z,79.90
2023-01-04T04:46:33.824Z,80.47
2023-01-04T04:49:00.288Z,80.57
2023-01-04T04:51:26.692Z,80.57
2023-01-04T04:53:53.123Z,79.38
2023-01-04T04:56:19.554Z,78.60
2023-01-04T04:58:46.048Z,78.31
2023-01-04T05:01:12.552Z,77.69
2023-01-04T05:03:39.135Z,77.71
2023-01-04T05:06:05.614Z,78.21
2023-01-04T05:08:32.084Z,78.72
2023-01-04T05:10:58.535Z,78.88
2023-01-04T05:13:24.950Z,78.38
2023-01-04T05:15:51.405Z,78.98
2023-01-04T05:18:17.835Z,78.95
2023-01-04T05:20:44.303Z,78.77
2023-01-04T05:23:10.725Z,78.88
2023-01-04T05:25:37.168Z,78.18
2023-01-04T05:28:03.592Z,78.32
2023-01-04T05:30:30.034Z,77.67
2023-01-04T05:32:56.469Z,76.94
2023-01-04T05:35:22.893Z,77.22
2023-01-04T05:37:49.314Z,77.56
2023-01-04T05:40:15.744Z,77.41
2023-01-04T05:42:42.152Z,78.00
2023-01-04T05:45:08.575Z,78.82
2023-01-04T05:47:34.993Z,78.73
2023-01-04T05:50:01.498Z,79.01
2023-01-04T05:52:27.905Z,78.89
2023-01-04T05:54:54.331Z,78.83
2023-01-04T05:57:20.773Z,78.87
2023-01-04T05:59:47.207Z,79.14
2023-01-04T06:02:13.733Z,79.02
2023-01-04T06:04:40.273Z,78.02
2023-01-04T06:07:06.724Z,78.50
2023-01-04T06:09:33.184Z,78.61
2023-01-04T06:11:59.634Z,77.09
2023-01-04T06:14:26.406Z,76.92
2023-01-04T06:16:52.882Z,76.58
2023-01-04T06:19:19.586Z,76.69
2023-01-04T06:21:46.074Z,76.91
2023-01-04T06:24:12.518Z,76.43
2023-01-04T06:26:39.027Z,76.46
2023-01-04T06:29:05.468Z,75.96
2023-01-04T06:31:32.015Z,75.77
2023-01-04T06:33:58.470Z,76.34
2023-01-04T06:36:24.885Z,75.98
2023-01-04T06:38:51.313Z,76.12
2023-01-04T06:41:17.779Z,75.84
2023-01-04T06:43:44.267Z,75.00
2023-01-04T06:46:10.807Z,74.74
2023-01-04T06:48:37.256Z,75.15
2023-01-04T06:51:03.677Z,76.16
2023-01-04T06:53:30.136Z,75.84
2023-01-04T06:55:56.547Z,75.80
2023-01-04T06:58:22.991Z,75.66
2023-01-04T07:00:49.441Z,76.00
2023-01-04T07:03:16.444Z,74.92
2023-01-04T07:05:42.998Z,74.92
2023-01-04T07:08:09.433Z,76.20
2023-01-04T07:10:35.863Z,75.98
2023-01-04T07:13:02.352Z,75.71
2023-01-04T07:15:39.424Z,75.90
2023-01-04T07:18:06.800Z,76.39
2023-01-04T07:20:33.217Z,76.22
2023-01-04T07:22:59.675Z,76.17
2023-01-04T07:25:26.087Z,75.90
2023-01-04T07:27:52.509Z,76.64
2023-01-04T07:30:18.934Z,75.92
2023-01-04T07:32:45.454Z,75.14
2023-01-04T07:35:11.857Z,75.92
2023-01-04T07:37:38.290Z,74.82
2023-01-04T07:40:04.717Z,74.95
2023-01-04T07:42:31.252Z,74.84
2023-01-04T07:44:57.703Z,75.07
2023-01-04T07:47:24.145Z,75.19
2023-01-04T07:49:50.550Z,74.79
2023-01-04T07:52:16.955Z,73.86
2023-01-04T07:54:43.408Z,73.35
2023-01-04T07:57:09.851Z,73.47
2023-01-04T07:59:36.297Z,72.41
2023-01-04T08:02:02.861Z,73.18
2023-01-04T08:04:34.632Z,73.02
2023-01-04T08:07:01.686Z,71.94
2023-01-04T08:09:28.116Z,70.54
2023-01-04T08:11:54.544Z,67.97
2023-01-04T08:14:20.980Z,67.87
2023-01-04T08:16:47.414Z,66.07
2023-01-04T08:19:13.860Z,68.00
2023-01-04T08:21:40.279Z,68.04
2023-01-04T08:24:06.711Z,66.19
2023-01-04T08:26:33.117Z,66.44
2023-01-04T08:28:59.589Z,66.73
2023-01-04T08:31:26.111Z,68.88
2023-01-04T08:33:52.618Z,68.61
2023-01-04T08:36:24.385Z,69.07
2023-01-04T08:39:01.650Z,69.70
2023-01-04T08:44:14.965Z,70.97
2023-01-04T08:46:41.494Z,70.97
2023-01-04T08:49:07.967Z,71.34
2023-01-04T08:51:34.421Z,70.97
2023-01-04T08:54:00.838Z,71.30
2023-01-04T08:56:27.287Z,71.31
2023-01-04T08:58:53.703Z,71.62
2023-01-04T09:01:20.204Z,71.90
2023-01-04T09:03:46.670Z,71.71
2023-01-04T09:06:13.086Z,70.93
2023-01-04T09:08:39.496Z,71.01
2023-01-04T09:11:05.970Z,71.03
2023-01-04T09:13:32.372Z,69.59
2023-01-04T09:15:58.822Z,68.94
2023-01-04T09:18:33.165Z,68.75
2023-01-04T09:20:59.973Z,68.55
2023-01-04T09:23:26.421Z,68.30
2023-01-04T09:25:52.843Z,67.58
2023-01-04T09:28:19.284Z,67.63
2023-01-04T09:30:45.733Z,68.19
2023-01-04T09:33:12.138Z,67.96
2023-01-04T09:35:38.618Z,67.34
2023-01-04T09:38:05.050Z,67.85
2023-01-04T09:40:31.488Z,67.35
2023-01-04T09:43:20.394Z,67.46
2023-01-04T09:45:44.320Z,67.53
2023-01-04T09:48:10.784Z,67.25
2023-01-04T09:50:37.182Z,67.09
2023-01-04T09:53:03.587Z,66.78
2023-01-04T09:55:40.989Z,66.46
2023-01-04T09:58:07.928Z,66.57
2023-01-04T10:00:36.331Z,64.50
2023-01-04T10:03:06.819Z,65.58
2023-01-04T10:05:33.496Z,66.17
2023-01-04T10:08:00.031Z,66.05
2023-01-04T10:10:26.522Z,64.89
2023-01-04T10:12:56.486Z,64.44
2023-01-04T10:15:26.169Z,66.38
2023-01-04T10:23:25.372Z,68.42
2023-01-04T10:25:51.785Z,67.61
2023-01-04T10:28:18.231Z,67.92
2023-01-04T10:30:44.676Z,68.37
2023-01-04T10:33:11.112Z,68.48
2023-01-04T10:35:37.557Z,68.30
2023-01-04T10:38:03.948Z,69.02
2023-01-04T10:40:30.366Z,68.94
2023-01-04T10:42:56.798Z,68.66
2023-01-04T10:45:23.228Z,68.68
2023-01-04T10:47:49.660Z,68.28
2023-01-04T10:50:16.086Z,67.92
2023-01-04T10:52:42.503Z,67.37
2023-01-04T10:55:08.897Z,67.85
2023-01-04T10:57:35.335Z,68.08
2023-01-04T11:00:01.761Z,67.90
2023-01-04T11:02:28.247Z,68.35
2023-01-04T11:04:54.810Z,68.56
2023-01-04T11:07:21.523Z,68.29
2023-01-04T11:09:47.977Z,67.70
2023-01-04T11:12:14.430Z,68.33
2023-01-04T11:14:40.887Z,67.00
2023-01-04T11:17:07.356Z,67.40
2023-01-04T11:19:33.810Z,66.91
2023-01-04T11:22:00.232Z,67.41
2023-01-04T11:24:34.129Z,67.01
2023-01-04T11:27:00.810Z,67.75
2023-01-04T11:29:27.227Z,67.65
2023-01-04T11:31:53.720Z,68.19
2023-01-04T11:34:20.243Z,67.53
2023-01-04T11:36:46.678Z,66.96
2023-01-04T11:39:13.090Z,67.36
2023-01-04T11:41:39.512Z,67.52
2023-01-04T11:44:05.992Z,67.22
2023-01-04T11:46:32.553Z,67.73
2023-01-04T11:48:59.038Z,67.87
2023-01-04T11:51:25.462Z,67.69
2023-01-04T11:53:51.937Z,66.97
2023-01-04T11:56:18.355Z,67.55
2023-01-04T11:58:44.812Z,67.70
2023-01-04T12:01:11.284Z,67.94
2023-01-04T12:03:37.686Z,66.86
2023-01-04T12:06:04.135Z,67.31
2023-01-04T12:08:30.571Z,67.41
2023-01-04T12:10:57.007Z,67.90
2023-01-04T12:13:23.432Z,67.30
2023-01-04T12:15:49.840Z,68.24
2023-01-04T12:18:16.434Z,67.76
2023-01-04T12:20:42.982Z,67.86
2023-01-04T12:23:09.419Z,67.58
2023-01-04T12:25:35.868Z,68.33
2023-01-04T12:28:02.309Z,67.79
2023-01-04T12:30:28.731Z,67.77
2023-01-04T12:32:55.158Z,68.20
2023-01-04T12:35:21.657Z,68.72
2023-01-04T12:37:48.082Z,68.53
2023-01-04T12:40:14.524Z,68.08
2023-01-04T12:42:40.958Z,68.44
2023-01-04T12:45:07.419Z,68.58
2023-01-04T12:47:33.849Z,68.79
2023-01-04T12:50:00.284Z,68.06
2023-01-04T12:52:37.890Z,68.58
2023-01-04T12:55:09.277Z,68.19
2023-01-04T12:57:37.932Z,67.36
2023-01-04T13:00:04.734Z,67.84
2023-01-04T13:02:31.578Z,67.69
2023-01-04T13:07:44.510Z,68.46
2023-01-04T13:10:10.951Z,68.74
2023-01-04T13:12:37.377Z,68.43
2023-01-04T13:15:03.828Z,68.81
2023-01-04T13:17:30.258Z,69.54
2023-01-04T13:19:56.707Z,69.66
2023-01-04T13:22:28.573Z,69.66
2023-01-04T13:24:55.547Z,69.88
2023-01-04T13:27:21.950Z,70.18
2023-01-04T13:29:48.371Z,70.84
2023-01-04T13:32:14.812Z,70.16
2023-01-04T13:34:41.302Z,70.31
2023-01-04T13:37:07.759Z,70.47
2023-01-04T13:39:34.221Z,70.63
2023-01-04T13:42:00.657Z,71.14
2023-01-04T13:44:43.995Z,70.60
2023-01-04T13:47:13.574Z,70.79
2023-01-04T13:49:40.060Z,70.79
2023-01-04T13:52:33.959Z,70.81
2023-01-04T13:54:52.981Z,70.13
2023-01-04T13:57:19.433Z,70.49
2023-01-04T13:59:45.898Z,70.47
2023-01-04T14:02:12.529Z,70.48
2023-01-04T14:04:39.068Z,69.69
2023-01-04T14:07:05.534Z,69.69
2023-01-04T14:09:32.378Z,69.87
2023-01-04T14:12:04.078Z,69.78
2023-01-04T14:14:33.037Z,69.80
2023-01-04T14:16:59.472Z,69.84
2023-01-04T14:19:26.113Z,69.51
2023-01-04T14:21:52.613Z,68.47
2023-01-04T14:24:41.693Z,68.27
2023-01-04T14:27:05.576Z,67.84
2023-01-04T14:29:31.983Z,68.75
2023-01-04T14:31:58.442Z,69.28
2023-01-04T14:34:24.884Z,68.67
2023-01-04T14:36:51.335Z,69.16
2023-01-04T14:39:17.783Z,68.97
2023-01-04T14:41:44.189Z,68.97
2023-01-04T14:44:10.622Z,69.25
2023-01-04T14:46:37.133Z,69.76
2023-01-04T14:49:03.631Z,69.38
2023-01-04T14:51:30.053Z,69.27
2023-01-04T14:53:56.451Z,69.09
2023-01-04T14:56:22.862Z,69.04
2023-01-04T14:58:49.299Z,69.78
2023-01-04T15:01:15.780Z,69.71
2023-01-04T15:03:42.560Z,69.12
2023-01-04T15:06:09.048Z,69.20
2023-01-04T15:08:36.701Z,68.45
2023-01-04T15:11:03.160Z,68.45
2023-01-04T15:13:34.902Z,68.33
2023-01-04T15:16:05.520Z,68.42
2023-01-04T15:18:31.988Z,69.09
2023-01-04T15:20:58.422Z,69.08
2023-01-04T15:23:24.904Z,68.57
2023-01-04T15:25:51.324Z,69.43
2023-01-04T15:28:17.747Z,69.36
2023-01-04T15:30:44.167Z,69.95
2023-01-04T15:33:10.616Z,70.17
2023-01-04T15:35:37.050Z,70.18
2023-01-04T15:38:06.464Z,70.37
2023-01-04T15:40:33.282Z,70.22
2023-01-04T15:42:59.687Z,70.60
2023-01-04T15:45:26.079Z,70.96
2023-01-04T15:47:52.516Z,70.92
2023-01-04T15:50:18.959Z,70.39
2023-01-04T15:52:45.441Z,70.38
2023-01-04T15:55:11.876Z,70.62
2023-01-04T15:57:41.949Z,71.26
2023-01-04T16:00:10.556Z,71.26
2023-01-04T16:02:37.061Z,70.81
2023-01-04T16:05:03.717Z,71.30
2023-01-04T16:07:34.540Z,71.59
2023-01-04T16:10:02.960Z,71.30
2023-01-04T16:12:29.486Z,71.67
2023-01-04T16:14:55.890Z,71.33
2023-01-04T16:17:22.365Z,71.34
2023-01-04T16:19:48.834Z,71.16
2023-01-04T16:22:15.282Z,72.02
2023-01-04T16:27:34.739Z,72.06
2023-01-04T16:30:01.729Z,72.12
2023-01-04T16:32:28.217Z,72.22
2023-01-04T16:34:54.639Z,72.13
2023-01-04T16:37:21.246Z,72.06
2023-01-04T16:42:34.135Z,71.37
2023-01-04T16:45:00.599Z,71.29
2023-01-04T16:47:27.062Z,71.50
2023-01-04T16:49:53.505Z,70.98
2023-01-04T16:52:19.967Z,71.16
2023-01-04T16:54:46.478Z,71.27
2023-01-04T16:57:12.893Z,71.62
2023-01-04T16:59:39.328Z,71.80
2023-01-04T17:02:05.852Z,71.80
2023-01-04T17:04:32.461Z,71.93
2023-01-04T17:06:58.921Z,72.54
2023-01-04T17:09:25.338Z,72.82
2023-01-04T17:12:36.397Z,72.94
2023-01-04T17:14:38.176Z,72.95
2023-01-04T17:17:04.593Z,73.38
2023-01-04T17:19:31.041Z,73.12
2023-01-04T17:21:57.442Z,73.06
2023-01-04T17:24:23.879Z,73.48
2023-01-04T17:26:50.311Z,73.59
2023-01-04T17:29:16.817Z,72.96
2023-01-04T17:31:43.284Z,73.30
2023-01-04T17:34:09.746Z,73.39
2023-01-04T17:36:36.222Z,73.44
2023-01-04T17:39:02.706Z,73.74
2023-01-04T17:41:29.195Z,73.65
2023-01-04T17:43:55.602Z,74.20
2023-01-04T17:46:23.299Z,74.56
2023-01-04T17:48:55.427Z,74.02
2023-01-04T17:51:36.527Z,74.00
2023-01-04T17:54:02.953Z,74.25
2023-01-04T17:56:29.402Z,73.81
2023-01-04T17:58:55.834Z,74.09
2023-01-04T18:01:22.319Z,73.92
2023-01-04T18:03:48.822Z,73.57
2023-01-04T18:06:25.464Z,73.79
2023-01-04T18:08:52.406Z,74.21
2023-01-04T18:11:18.823Z,73.92
2023-01-04T18:13:45.373Z,74.08
2023-01-04T18:16:24.014Z,74.15
2023-01-04T18:18:51.419Z,73.79
2023-01-04T18:21:27.938Z,73.58
2023-01-04T18:24:25.807Z,73.81
2023-01-04T18:27:10.691Z,74.17
2023-01-04T18:29:27.926Z,74.33
2023-01-04T18:31:54.400Z,74.58
2023-01-04T18:34:20.900Z,74.86
2023-01-04T18:36:47.305Z,74.84
2023-01-04T18:39:13.712Z,74.84
2023-01-04T18:41:40.112Z,75.10
2023-01-04T18:44:31.358Z,75.24
2023-01-04T18:46:52.926Z,74.99
2023-01-04T18:49:19.389Z,75.09
2023-01-04T18:51:45.822Z,74.92
2023-01-04T18:54:12.243Z,75.21
2023-01-04T18:56:38.731Z,74.84
2023-01-04T18:59:05.184Z,74.81
2023-01-04T19:01:31.756Z,74.47
2023-01-04T19:03:58.424Z,73.94
2023-01-04T19:06:24.947Z,73.92
2023-01-04T19:08:57.162Z,73.73
2023-01-04T19:11:25.652Z,73.37
2023-01-04T19:13:52.700Z,73.75
2023-01-04T19:16:20.329Z,73.36
2023-01-04T19:18:47.930Z,73.34
2023-01-04T19:21:15.482Z,72.90
2023-01-04T19:23:42.103Z,73.05
2023-01-04T19:26:09.785Z,73.09
2023-01-04T19:28:37.297Z,73.26
2023-01-04T19:31:04.262Z,73.02
2023-01-04T19:33:32.497Z,72.89
2023-01-04T19:35:59.084Z,72.88
2023-01-04T19:38:25.674Z,72.90
2023-01-04T19:40:53.252Z,72.94
2023-01-04T19:43:19.856Z,72.47
2023-01-04T19:45:46.529Z,72.69
2023-01-04T19:48:14.040Z,72.40
2023-01-04T19:50:40.530Z,72.97
2023-01-04T19:53:06.953Z,73.24
2023-01-04T19:55:33.464Z,72.82
2023-01-04T19:57:59.922Z,72.73
2023-01-04T20:00:27.072Z,72.99
2023-01-04T20:02:54.037Z,73.15
2023-01-04T20:05:21.242Z,72.60
2023-01-04T20:07:47.843Z,73.29
2023-01-04T20:10:14.801Z,73.32
2023-01-04T20:12:42.039Z,73.47
2023-01-04T20:15:08.624Z,73.62
2023-01-04T20:17:35.236Z,73.62
2023-01-04T20:20:01.707Z,74.00
2023-01-04T20:22:28.398Z,74.59
2023-01-04T20:24:56.003Z,74.64
2023-01-04T20:27:22.490Z,74.56
2023-01-04T20:29:48.888Z,74.32
2023-01-04T20:32:15.342Z,74.65
2023-01-04T20:34:42.359Z,75.13
2023-01-04T20:37:08.957Z,75.07
2023-01-04T20:39:36.544Z,75.39
2023-01-04T20:42:02.992Z,75.94
2023-01-04T20:44:29.721Z,76.14
2023-01-04T20:46:57.328Z,76.71
2023-01-04T20:49:24.208Z,76.75
2023-01-04T20:51:50.674Z,76.74
2023-01-04T20:54:17.133Z,76.78
2023-01-04T20:56:43.544Z,76.60
2023-01-04T20:59:09.995Z,76.74
2023-01-04T21:01:36.497Z,76.28
2023-01-04T21:04:02.987Z,76.35
2023-01-04T21:06:29.434Z,76.32
2023-01-04T21:08:55.889Z,76.10
2023-01-04T21:11:22.338Z,76.04
2023-01-04T21:13:49.838Z,75.68
2023-01-04T21:16:16.291Z,75.40
2023-01-04T21:18:43.010Z,75.42
2023-01-04T21:21:10.603Z,75.01
2023-01-04T21:23:37.232Z,75.20
2023-01-04T21:26:04.986Z,75.03
2023-01-04T21:28:31.680Z,75.29
2023-01-04T21:30:58.204Z,75.10
2023-01-04T21:33:24.891Z,74.73
2023-01-04T21:35:52.502Z,74.74
2023-01-04T21:38:19.097Z,75.04
2023-01-04T21:40:45.528Z,74.95
2023-01-04T21:43:11.983Z,75.11
2023-01-04T21:45:38.415Z,75.52
2023-01-04T21:48:05.513Z,75.85
2023-01-04T21:50:32.084Z,76.37
2023-01-04T21:52:58.678Z,76.37
2023-01-04T21:55:32.442Z,76.94
2023-01-04T21:58:00.889Z,77.46
2023-01-04T22:00:27.600Z,77.47
2023-01-04T22:02:55.192Z,77.60
2023-01-04T22:05:22.689Z,77.84
2023-01-04T22:07:50.286Z,78.44
2023-01-04T22:10:16.706Z,78.65
2023-01-04T22:12:43.157Z,78.96
2023-01-04T22:15:09.565Z,78.86
2023-01-04T22:17:36.013Z,79.29
2023-01-04T22:20:02.447Z,79.33
2023-01-04T22:22:28.865Z,79.87
2023-01-04T22:24:56.456Z,80.09
2023-01-04T22:27:22.887Z,79.42
2023-01-04T22:29:49.324Z,79.98
2023-01-04T22:32:15.752Z,79.79
2023-01-04T22:34:42.265Z,79.59
2023-01-04T22:37:08.704Z,79.70
2023-01-04T22:39:35.137Z,80.12
2023-01-04T22:42:01.565Z,80.03
2023-01-04T22:44:28.052Z,79.93
2023-01-04T22:46:54.533Z,79.58
2023-01-04T22:49:20.998Z,79.69
2023-01-04T22:51:47.426Z,79.73
2023-01-04T22:54:13.884Z,79.30
2023-01-04T22:56:40.343Z,80.10
2023-01-04T22:59:06.866Z,79.68
2023-01-04T23:01:33.398Z,80.09
2023-01-04T23:03:59.925Z,80.19
2023-01-04T23:06:26.413Z,80.13
2023-01-04T23:08:52.875Z,80.21
2023-01-04T23:11:19.318Z,80.61
2023-01-04T23:13:45.779Z,80.64
2023-01-04T23:16:12.241Z,80.88
2023-01-04T23:18:39.541Z,80.79
2023-01-04T23:21:05.978Z,80.98
2023-01-04T23:23:32.724Z,81.38
2023-01-04T23:25:59.151Z,81.27
2023-01-04T23:28:25.614Z,79.85
2023-01-04T23:30:52.100Z,80.56
2023-01-04T23:33:18.560Z,81.00
2023-01-04T23:35:45.055Z,81.04
2023-01-04T23:38:11.468Z,81.40
2023-01-04T23:40:37.925Z,80.91
2023-01-04T23:43:04.325Z,81.06
2023-01-04T23:45:30.736Z,81.19
2023-01-04T23:47:57.136Z,80.95
2023-01-04T23:50:23.558Z,81.43
2023-01-04T23:52:49.958Z,81.32
2023-01-04T23:55:17.458Z,81.27
2023-01-04T23:57:45.037Z,81.38
